Time;durP1;ratioP1;P1;durP2;ratioP2;P2;SDS_P1;SDS_P2;PMS_P1;PMS_P2;Temp;Humidity;BMP_temperature;BMP_pressure;BME280_temperature;BME280_humidity;BME280_pressure;Samples;Min_cycle;Max_cycle;Signal;HPM_P1;HPM_P2
2021/12/25 00:02:05;;;;;;;76.63;39.10;;;;;;;-1.65;74.28;99897.66;5070756;28;20025;-22
2021/12/25 00:04:31;;;;;;;78.43;37.88;;;;;;;-1.65;73.12;99868.91;5071189;28;20040;-22
2021/12/25 00:06:56;;;;;;;77.88;39.55;;;;;;;-0.99;70.03;99897.59;5070566;28;20044;-21
2021/12/25 00:09:22;;;;;;;73.72;39.63;;;;;;;-1.06;69.28;99897.38;5070812;28;20032;-22
2021/12/25 00:11:47;;;;;;;67.53;38.05;;;;;;;-1.24;69.77;99911.25;5070479;28;20488;-22
2021/12/25 00:14:13;;;;;;;76.85;41.78;;;;;;;-1.12;70.12;99903.19;5070733;28;20028;-22
2021/12/25 00:16:38;;;;;;;71.70;37.28;;;;;;;-1.62;71.75;99894.75;5070621;28;20021;-21
2021/12/25 00:19:04;;;;;;;76.05;39.15;;;;;;;-1.45;71.19;99914.09;5070609;28;20105;-22
2021/12/25 00:21:29;;;;;;;79.28;40.70;;;;;;;-1.28;71.06;99894.19;5070059;28;20052;-21
2021/12/25 00:23:55;;;;;;;72.68;37.72;;;;;;;-1.17;70.34;99894.94;5070377;28;20039;-22
2021/12/25 00:26:37;;;;;;;66.38;35.60;;;;;;;-0.86;68.76;99904.13;5070369;28;20043;-22
2021/12/25 00:29:22;;;;;;;75.07;36.75;;;;;;;-0.86;69.03;99930.31;5070133;28;20170;-23
2021/12/25 00:34:33;;;;;;;73.18;36.97;;;;;;;-1.55;70.49;99896.78;5048886;28;20461;-22
2021/12/25 00:36:58;;;;;;;59.78;34.03;;;;;;;-1.59;71.67;99916.34;5070542;28;20484;-22
2021/12/25 00:39:25;;;;;;;68.03;35.00;;;;;;;-1.62;71.16;99918.28;5070270;28;20024;-22
2021/12/25 00:41:51;;;;;;;70.50;35.08;;;;;;;-2.22;72.74;99920.41;5070151;28;20029;-21
2021/12/25 00:44:17;;;;;;;70.93;35.78;;;;;;;-2.97;74.53;99914.88;5070084;28;20466;-22
2021/12/25 00:46:42;;;;;;;68.07;34.67;;;;;;;-3.14;74.63;99908.56;5069867;28;20021;-22
2021/12/25 00:49:07;;;;;;;64.30;35.15;;;;;;;-2.96;74.24;99913.94;5052055;28;20025;-22
2021/12/25 00:51:33;;;;;;;68.88;38.58;;;;;;;-2.70;74.27;99926.44;5070390;28;20036;-22
2021/12/25 00:53:58;;;;;;;90.97;44.40;;;;;;;-2.49;72.89;99898.44;5068521;28;20040;-22
2021/12/25 00:56:24;;;;;;;78.15;40.03;;;;;;;-1.98;71.83;99921.72;5070044;28;20077;-22
2021/12/25 00:58:49;;;;;;;98.07;51.53;;;;;;;-2.03;72.24;99917.72;5069822;28;20056;-22
2021/12/25 01:01:15;;;;;;;83.82;45.92;;;;;;;-2.13;72.89;99929.16;5069720;28;20480;-22
2021/12/25 01:03:40;;;;;;;79.78;43.67;;;;;;;-2.18;73.53;99928.78;5069821;28;20478;-27
2021/12/25 01:06:05;;;;;;;95.95;46.58;;;;;;;-1.77;73.21;99935.41;5069911;28;20034;-22
2021/12/25 01:08:31;;;;;;;90.43;44.22;;;;;;;-1.58;71.70;99923.25;5069617;28;20082;-22
2021/12/25 01:10:57;;;;;;;90.05;43.15;;;;;;;-1.46;70.73;99927.31;5069626;28;20081;-22
2021/12/25 01:13:47;;;;;;;92.53;45.00;;;;;;;-1.43;70.71;99921.78;5069592;28;20032;-22
2021/12/25 01:16:26;;;;;;;85.75;44.65;;;;;;;-1.55;71.61;99907.25;5054561;28;20036;-22
2021/12/25 01:37:16;;;;;;;82.45;40.03;;;;;;;-0.83;69.30;99916.91;5068954;28;20416;-22
2021/12/25 01:39:53;;;;;;;81.85;43.17;;;;;;;-1.35;71.51;99914.03;5068996;28;20147;-21
2021/12/25 01:47:49;;;;;;;80.63;40.42;;;;;;;-0.83;68.98;99916.09;5068582;28;20043;-23
2021/12/25 01:50:25;;;;;;;75.73;39.40;;;;;;;-1.30;69.61;99874.38;5068643;28;20472;-22
2021/12/25 01:52:51;;;;;;;78.53;41.53;;;;;;;-1.94;72.24;99881.25;5068812;28;20109;-22
2021/12/25 01:55:19;;;;;;;78.18;39.90;;;;;;;-1.90;72.36;99893.06;5068618;28;20103;-21
2021/12/25 01:57:44;;;;;;;76.32;41.30;;;;;;;-1.68;71.56;99912.81;5050574;28;20086;-22
2021/12/25 02:00:35;;;;;;;80.85;41.15;;;;;;;-1.74;71.43;99885.44;5068458;28;20028;-22
2021/12/25 02:03:01;;;;;;;83.25;42.33;;;;;;;-1.53;71.14;99910.53;5067939;28;20047;-22
2021/12/25 02:05:27;;;;;;;101.78;45.40;;;;;;;-1.71;71.71;99882.56;5050071;28;20107;-22
2021/12/25 02:07:52;;;;;;;118.88;48.85;;;;;;;-1.41;70.57;99898.94;5068344;28;20554;-22
2021/12/25 02:10:18;;;;;;;134.20;53.97;;;;;;;-1.34;70.14;99886.09;5068792;28;20032;-22
2021/12/25 02:12:44;;;;;;;87.90;43.65;;;;;;;-1.55;70.46;99866.25;5050705;28;20459;-22
2021/12/25 02:15:14;;;;;;;105.93;47.45;;;;;;;-1.01;69.40;99900.34;5068398;28;20123;-22
2021/12/25 02:20:24;;;;;;;293.13;118.65;;;;;;;-1.78;71.83;99885.88;5052380;28;20032;-22
2021/12/25 02:22:51;;;;;;;253.93;99.70;;;;;;;-2.14;72.35;99852.59;5068294;28;20047;-22
2021/12/25 02:25:17;;;;;;;194.57;79.68;;;;;;;-1.80;71.72;99878.19;5068455;28;20459;-22
2021/12/25 02:27:44;;;;;;;144.75;65.55;;;;;;;-1.34;70.84;99892.16;5067862;28;20028;-22
2021/12/25 02:30:10;;;;;;;954.97;416.83;;;;;;;-1.80;71.96;99872.13;5049659;28;20169;-22
2021/12/25 02:32:35;;;;;;;567.85;245.50;;;;;;;-1.79;72.76;99892.09;5067976;28;20680;-22
2021/12/25 02:35:01;;;;;;;188.95;81.22;;;;;;;-1.33;70.93;99885.13;5067983;28;20035;-22
2021/12/25 02:37:26;;;;;;;243.63;123.72;;;;;;;-1.40;70.85;99900.59;5049733;28;20796;-22
2021/12/25 02:39:52;;;;;;;209.52;108.40;;;;;;;-1.33;70.22;99891.16;5067971;28;20502;-22
2021/12/25 02:42:18;;;;;;;164.48;78.18;;;;;;;-1.47;71.85;99907.34;5067841;28;20415;-22
2021/12/25 02:44:44;;;;;;;196.40;104.25;;;;;;;-1.82;73.04;99891.41;5050391;28;20028;-22
2021/12/25 02:47:15;;;;;;;215.18;110.50;;;;;;;-1.63;72.71;99885.28;5067904;28;20028;-21
2021/12/25 02:49:45;;;;;;;126.53;61.20;;;;;;;-1.52;72.90;99897.34;5050042;28;20470;-22
2021/12/25 02:52:10;;;;;;;118.50;56.40;;;;;;;-1.98;73.75;99898.19;5068296;28;20040;-23
2021/12/25 02:54:36;;;;;;;107.20;53.28;;;;;;;-1.86;74.18;99904.88;5067924;28;20851;-22
2021/12/25 02:57:02;;;;;;;103.28;50.80;;;;;;;-1.73;72.79;99897.56;5067812;28;20040;-22
2021/12/25 02:59:27;;;;;;;94.78;48.22;;;;;;;-1.42;72.35;99913.00;5067308;28;20039;-22
2021/12/25 03:01:52;;;;;;;100.68;49.15;;;;;;;-1.29;70.56;99918.72;5067696;28;20488;-22
2021/12/25 03:04:18;;;;;;;89.95;46.13;;;;;;;-1.96;71.34;99888.41;5067924;28;20028;-22
2021/12/25 03:06:43;;;;;;;79.55;40.80;;;;;;;-2.27;72.15;99896.47;5067657;28;20028;-22
2021/12/25 03:09:09;;;;;;;75.55;38.03;;;;;;;-2.06;71.19;99917.22;5050099;28;20503;-23
2021/12/25 03:11:34;;;;;;;79.15;39.53;;;;;;;-2.36;71.99;99871.19;5067317;28;20778;-22
2021/12/25 03:14:13;;;;;;;69.20;37.10;;;;;;;-1.73;70.62;99926.31;5067750;28;20032;-22
2021/12/25 03:16:39;;;;;;;62.22;34.65;;;;;;;-1.65;70.47;99918.59;5049845;28;20404;-22
2021/12/25 03:19:08;;;;;;;76.43;40.08;;;;;;;-1.47;69.68;99926.50;5053831;28;20124;-22
2021/12/25 03:21:33;;;;;;;63.08;31.88;;;;;;;-1.68;70.01;99912.81;5071671;28;20036;-22
2021/12/25 03:23:58;;;;;;;75.20;37.80;;;;;;;-2.06;71.24;99915.41;5071701;28;20109;-22
2021/12/25 03:26:24;;;;;;;58.22;30.85;;;;;;;-2.25;73.28;99931.09;5071758;28;20040;-22
2021/12/25 03:28:52;;;;;;;62.75;30.85;;;;;;;-1.86;71.55;99931.03;5071658;28;20131;-22
2021/12/25 03:31:20;;;;;;;59.90;30.90;;;;;;;-1.60;70.48;99919.94;5053467;28;20078;-22
2021/12/25 03:33:48;;;;;;;61.35;32.22;;;;;;;-1.54;70.94;99924.59;5071331;28;20033;-22
2021/12/25 03:36:14;;;;;;;67.47;34.38;;;;;;;-1.34;70.41;99920.94;5020462;28;20028;-22
2021/12/25 03:38:40;;;;;;;65.82;34.85;;;;;;;-1.83;72.31;99925.53;5071245;28;20032;-22
2021/12/25 03:41:06;;;;;;;73.53;36.20;;;;;;;-1.99;73.00;99914.84;5071467;28;20047;-22
2021/12/25 03:43:33;;;;;;;71.47;36.75;;;;;;;-2.13;72.59;99913.50;5071067;28;20590;-23
2021/12/25 03:45:58;;;;;;;87.32;40.50;;;;;;;-1.76;71.53;99913.53;5071335;28;20036;-22
2021/12/25 03:59:02;;;;;;;60.30;33.33;;;;;;;-2.86;75.30;99917.38;5070987;28;20566;-22
2021/12/25 04:07:06;;;;;;;66.28;35.72;;;;;;;-2.59;74.03;99899.41;5053341;28;20063;-22
2021/12/25 04:09:34;;;;;;;74.85;36.55;;;;;;;-1.82;72.09;99937.63;5070675;28;20040;-22
2021/12/25 04:12:05;;;;;;;109.13;46.53;;;;;;;-1.89;71.53;99941.78;5052898;28;20032;-22
2021/12/25 04:14:30;;;;;;;133.82;55.30;;;;;;;-1.72;71.40;99927.97;5070655;28;20111;-22
2021/12/25 04:16:56;;;;;;;97.55;47.63;;;;;;;-1.92;71.95;99942.91;5070428;28;20139;-22
2021/12/25 04:19:21;;;;;;;111.72;50.05;;;;;;;-2.12;71.63;99917.78;5052663;28;20117;-22
2021/12/25 04:21:53;;;;;;;173.25;67.03;;;;;;;-1.62;71.43;99939.22;5052486;28;20677;-23
2021/12/25 04:24:19;;;;;;;106.55;49.53;;;;;;;-1.73;71.16;99918.47;5070319;28;20032;-22
2021/12/25 04:26:46;;;;;;;102.57;49.78;;;;;;;-1.47;70.15;99941.34;5070607;28;20036;-23
2021/12/25 05:04:21;;;;;;;103.50;50.50;;;;;;;-1.33;70.05;99963.59;5070032;28;20040;-21
2021/12/25 05:06:48;;;;;;;100.97;51.22;;;;;;;-1.64;71.49;99967.28;5069722;28;20111;-22
2021/12/25 05:09:13;;;;;;;130.55;62.10;;;;;;;-1.70;71.61;99967.84;5069696;28;20028;-22
2021/12/25 05:11:39;;;;;;;155.13;72.20;;;;;;;-1.83;72.18;99972.59;5069482;28;20037;-23
2021/12/25 05:14:04;;;;;;;144.40;71.93;;;;;;;-1.96;73.31;99972.03;5069680;28;20086;-22
2021/12/25 05:16:30;;;;;;;99.05;51.28;;;;;;;-2.20;73.71;99956.84;5069716;28;20063;-22
2021/12/25 05:18:55;;;;;;;130.43;63.33;;;;;;;-1.56;72.58;99968.38;5069400;28;20476;-21
2021/12/25 05:21:21;;;;;;;109.80;50.22;;;;;;;-1.65;71.38;99933.47;5069296;28;20029;-23
2021/12/25 05:23:47;;;;;;;105.68;53.75;;;;;;;-1.45;71.03;99976.88;5069172;28;20492;-22
2021/12/25 05:26:13;;;;;;;116.75;53.60;;;;;;;-1.04;70.04;99979.19;5069216;28;20086;-22
2021/12/25 05:28:40;;;;;;;114.80;56.65;;;;;;;-1.23;70.58;99970.47;5069065;28;20032;-22
2021/12/25 05:31:10;;;;;;;130.68;61.22;;;;;;;-1.11;69.56;99985.97;5069339;28;20488;-22
2021/12/25 05:33:36;;;;;;;143.48;68.32;;;;;;;-0.97;68.65;99961.91;5069116;28;20071;-22
2021/12/25 05:36:01;;;;;;;213.40;107.22;;;;;;;-1.16;69.27;99996.06;5068967;28;20036;-22
2021/12/25 05:38:27;;;;;;;130.63;64.68;;;;;;;-1.79;71.82;99973.94;5069364;28;20024;-22
2021/12/25 05:40:52;;;;;;;109.72;54.97;;;;;;;-1.69;71.87;99990.44;5068583;28;20036;-23
2021/12/25 05:43:18;;;;;;;136.55;66.38;;;;;;;-1.45;71.57;99976.03;5069034;28;20032;-22
2021/12/25 05:45:43;;;;;;;111.85;58.17;;;;;;;-1.19;70.28;99972.78;5068439;28;20090;-22
2021/12/25 05:48:09;;;;;;;161.32;83.78;;;;;;;-1.43;70.37;99953.19;5069035;28;20039;-22
2021/12/25 05:50:34;;;;;;;117.22;57.08;;;;;;;-1.01;69.91;99987.56;5068687;28;20036;-23
2021/12/25 05:53:00;;;;;;;125.35;57.20;;;;;;;-1.49;70.96;99964.22;5068663;28;20043;-22
2021/12/25 05:55:26;;;;;;;113.05;54.33;;;;;;;-1.66;71.19;99977.06;5068555;28;20025;-22
2021/12/25 05:57:51;;;;;;;113.38;54.83;;;;;;;-1.70;71.96;99977.50;5068695;28;20059;-22
2021/12/25 06:00:17;;;;;;;126.57;58.05;;;;;;;-1.69;71.65;99979.97;5068725;28;20543;-22
2021/12/25 06:02:43;;;;;;;140.27;65.78;;;;;;;-1.30;71.54;99958.91;5068568;28;20037;-22
2021/12/25 06:05:09;;;;;;;141.63;67.68;;;;;;;-1.04;69.94;99985.25;5050800;28;20505;-22
2021/12/25 06:07:34;;;;;;;136.48;66.75;;;;;;;-1.12;70.26;99986.94;5068493;28;20033;-22
2021/12/25 06:10:00;;;;;;;127.32;62.55;;;;;;;-1.37;70.25;99988.41;5068666;28;20037;-22
2021/12/25 06:12:26;;;;;;;140.77;67.28;;;;;;;-1.54;70.35;99971.69;5050540;28;20032;-22
2021/12/25 06:14:54;;;;;;;155.57;76.72;;;;;;;-2.11;72.31;99948.97;5068361;28;20032;-21
2021/12/25 06:17:19;;;;;;;162.45;73.85;;;;;;;-1.95;72.39;99973.72;5068459;28;20035;-22
2021/12/25 06:19:44;;;;;;;165.32;80.55;;;;;;;-1.46;70.94;100011.84;5068329;28;20394;-22
2021/12/25 06:22:10;;;;;;;157.93;69.68;;;;;;;-1.05;70.17;100014.16;5068384;28;20036;-23
2021/12/25 06:24:36;;;;;;;142.73;67.32;;;;;;;-0.67;69.20;100010.53;5068262;28;20097;-22
2021/12/25 06:27:01;;;;;;;154.73;73.97;;;;;;;-0.53;68.21;100008.34;5050188;28;20481;-22
2021/12/25 06:29:27;;;;;;;148.95;67.97;;;;;;;-0.75;69.14;100020.09;5067870;28;20135;-22
2021/12/25 06:31:52;;;;;;;113.93;56.35;;;;;;;-0.91;70.16;100026.78;5050076;28;20500;-22
2021/12/25 06:34:19;;;;;;;107.00;51.08;;;;;;;-1.16;71.11;100011.75;5068077;28;20033;-22
2021/12/25 06:36:44;;;;;;;95.18;50.05;;;;;;;-1.05;71.12;100014.97;5067877;28;20032;-22
2021/12/25 06:39:14;;;;;;;114.03;51.22;;;;;;;-0.84;70.96;100033.09;5068013;28;20043;-22
2021/12/25 06:41:39;;;;;;;114.60;54.58;;;;;;;-0.74;70.73;100040.06;5067882;28;20028;-22
2021/12/25 06:44:05;;;;;;;113.57;56.72;;;;;;;-0.92;70.59;100009.44;5067742;28;20393;-24
2021/12/25 06:46:30;;;;;;;115.85;59.28;;;;;;;-0.96;73.19;100034.25;5068086;28;20415;-22
2021/12/25 06:48:56;;;;;;;132.63;63.70;;;;;;;-0.86;72.19;100028.94;5033236;28;20032;-23
2021/12/25 06:51:21;;;;;;;136.57;65.55;;;;;;;-0.66;72.25;100042.75;5068087;28;20024;-23
2021/12/25 06:53:47;;;;;;;164.23;80.75;;;;;;;-0.73;71.90;100034.69;5067853;28;20036;-22
2021/12/25 06:56:12;;;;;;;157.63;74.32;;;;;;;-0.79;72.86;100023.97;5067626;28;20090;-22
2021/12/25 06:58:38;;;;;;;157.40;76.13;;;;;;;-0.83;73.34;100034.72;5067537;28;20105;-22
2021/12/25 07:01:03;;;;;;;154.98;74.65;;;;;;;-0.26;71.39;100041.56;5067809;28;20025;-22
2021/12/25 07:03:29;;;;;;;147.88;72.28;;;;;;;-0.65;72.34;100041.81;5067927;28;20121;-24
2021/12/25 07:05:54;;;;;;;147.77;70.70;;;;;;;-0.39;72.21;100036.66;5068137;28;20033;-22
2021/12/25 07:08:20;;;;;;;164.05;81.47;;;;;;;-0.61;72.40;100043.97;5068184;28;20024;-22
2021/12/25 07:10:45;;;;;;;168.18;84.40;;;;;;;-0.66;72.50;100040.16;5067645;28;20101;-21
2021/12/25 07:13:16;;;;;;;169.00;85.05;;;;;;;-0.93;73.43;100028.72;5067557;28;20039;-22
2021/12/25 07:15:42;;;;;;;176.45;85.80;;;;;;;-0.35;72.88;100048.50;5067720;28;20090;-22
2021/12/25 07:18:07;;;;;;;170.93;84.95;;;;;;;-0.39;72.43;100046.31;5067475;28;20032;-22
2021/12/25 07:20:33;;;;;;;165.32;82.35;;;;;;;-0.24;70.59;100055.34;5067565;28;20031;-22
2021/12/25 07:22:58;;;;;;;189.30;93.65;;;;;;;0.03;70.79;100077.22;5067621;28;20028;-22
2021/12/25 07:25:24;;;;;;;208.32;110.57;;;;;;;0.09;71.29;100071.34;5066935;28;20036;-21
2021/12/25 07:27:50;;;;;;;213.68;118.20;;;;;;;0.23;70.13;100057.72;5067645;28;20033;-22
2021/12/25 07:30:16;;;;;;;153.50;80.30;;;;;;;0.06;71.56;100056.75;5067313;28;20084;-22
2021/12/25 07:32:41;;;;;;;162.57;83.60;;;;;;;0.48;70.45;100066.56;5067459;28;20032;-22
2021/12/25 07:35:07;;;;;;;170.77;84.82;;;;;;;1.01;68.50;100075.25;5067581;28;20488;-21
2021/12/25 07:37:33;;;;;;;372.63;225.20;;;;;;;0.96;68.99;100072.28;5067108;28;20024;-22
2021/12/25 07:40:00;;;;;;;169.25;86.00;;;;;;;0.72;70.13;100063.28;5049900;28;20037;-22
2021/12/25 07:42:26;;;;;;;161.02;81.85;;;;;;;1.29;69.13;100059.28;5067222;28;20031;-22
2021/12/25 07:44:55;;;;;;;140.68;73.75;;;;;;;1.66;67.56;100079.13;5049568;28;20111;-22
2021/12/25 07:47:22;;;;;;;156.35;81.78;;;;;;;1.34;67.69;100062.28;5067322;28;20028;-22
2021/12/25 07:49:48;;;;;;;142.95;73.57;;;;;;;1.49;68.75;100071.19;5049338;28;20032;-22
2021/12/25 07:52:15;;;;;;;127.43;66.93;;;;;;;1.78;67.85;100064.69;5067239;28;20032;-22
2021/12/25 07:54:40;;;;;;;118.43;60.47;;;;;;;2.01;66.77;100065.69;5067131;28;20036;-22
2021/12/25 07:57:06;;;;;;;125.13;62.40;;;;;;;2.09;66.72;100095.66;5066898;28;20029;-22
2021/12/25 07:59:31;;;;;;;107.47;57.15;;;;;;;1.62;68.22;100076.00;5066737;28;20035;-22
2021/12/25 08:01:57;;;;;;;112.82;59.42;;;;;;;1.33;69.98;100071.97;5067004;28;20028;-22
2021/12/25 08:04:22;;;;;;;110.70;59.05;;;;;;;1.16;71.31;100080.75;5070376;28;20032;-23
2021/12/25 08:06:48;;;;;;;117.93;60.70;;;;;;;1.37;71.04;100083.00;5053052;28;20043;-22
2021/12/25 08:09:13;;;;;;;112.00;60.95;;;;;;;1.04;72.22;100061.00;5071064;28;20474;-22
2021/12/25 08:11:39;;;;;;;120.07;64.07;;;;;;;1.13;71.72;100081.88;5070657;28;20033;-21
2021/12/25 08:14:04;;;;;;;120.00;63.38;;;;;;;0.91;71.26;100040.41;5070920;28;20025;-22
2021/12/25 08:16:29;;;;;;;118.53;62.85;;;;;;;1.55;70.13;100044.28;5052361;28;20032;-22
2021/12/25 08:18:55;;;;;;;118.88;64.20;;;;;;;2.29;66.81;100064.53;5070756;28;20025;-22
2021/12/25 08:21:20;;;;;;;124.22;64.43;;;;;;;2.51;66.43;100070.94;5070623;28;20029;-22
2021/12/25 08:23:47;;;;;;;115.43;62.10;;;;;;;2.83;67.16;100071.91;5070188;28;20507;-23
2021/12/25 08:26:12;;;;;;;129.10;66.88;;;;;;;2.99;67.23;100074.50;5070576;28;20058;-22
2021/12/25 08:28:38;;;;;;;156.65;81.88;;;;;;;2.58;67.27;100078.03;5070050;28;20133;-22
2021/12/25 08:31:03;;;;;;;168.55;87.13;;;;;;;2.97;66.27;100087.00;5070530;28;20029;-23
2021/12/25 08:33:29;;;;;;;174.40;89.20;;;;;;;3.39;65.85;100080.59;5070395;28;20037;-22
2021/12/25 08:35:54;;;;;;;157.48;79.85;;;;;;;3.33;65.44;100070.72;5070410;28;20503;-22
2021/12/25 08:38:20;;;;;;;128.10;66.32;;;;;;;3.27;64.91;100076.69;5052443;28;20028;-22
2021/12/25 08:40:46;;;;;;;144.32;72.93;;;;;;;3.48;64.24;100053.22;5069991;28;20033;-22
2021/12/25 08:43:13;;;;;;;123.20;67.43;;;;;;;3.63;64.57;100056.72;5070124;28;20064;-22
2021/12/25 08:48:08;;;;;;;114.45;58.67;;;;;;;3.65;63.83;100063.66;5070083;28;20485;-22
2021/12/25 08:50:33;;;;;;;105.78;56.58;;;;;;;4.33;63.39;100065.50;5070001;28;20035;-22
2021/12/25 08:52:59;;;;;;;171.13;82.10;;;;;;;4.68;62.53;100060.56;5069805;28;20032;-22
2021/12/25 08:55:25;;;;;;;82.18;49.15;;;;;;;5.05;61.15;100058.84;5069728;28;20484;-22
2021/12/25 08:57:51;;;;;;;79.45;44.67;;;;;;;4.94;60.92;100062.75;5052215;28;20029;-22
2021/12/25 09:00:17;;;;;;;84.78;49.42;;;;;;;5.29;60.06;100046.31;5069774;28;20035;-22
2021/12/25 09:02:42;;;;;;;75.72;44.42;;;;;;;5.29;60.77;100056.91;5051853;28;20120;-22
2021/12/25 09:05:08;;;;;;;80.40;46.60;;;;;;;5.15;60.32;100054.09;5051984;28;20033;-21
2021/12/25 09:07:33;;;;;;;100.55;54.40;;;;;;;5.83;59.09;100028.19;5051407;28;20043;-22
2021/12/25 09:09:59;;;;;;;77.63;45.08;;;;;;;6.15;56.80;100046.44;5069559;28;20060;-21
2021/12/25 09:12:25;;;;;;;177.50;86.90;;;;;;;6.45;57.78;100041.78;5069648;28;20090;-22
2021/12/25 09:14:51;;;;;;;95.93;54.63;;;;;;;6.78;55.85;100044.69;5068471;28;20484;-22
2021/12/25 09:17:16;;;;;;;154.00;77.03;;;;;;;7.00;55.75;100041.94;5069488;28;20032;-22
2021/12/25 09:19:42;;;;;;;155.82;84.10;;;;;;;7.37;55.41;100023.94;5069731;28;20379;-22
2021/12/25 09:22:08;;;;;;;126.28;64.97;;;;;;;6.94;54.69;100010.91;5069192;28;20055;-21
2021/12/25 09:24:34;;;;;;;108.78;59.75;;;;;;;7.05;53.88;100015.69;5051495;28;20119;-22
2021/12/25 09:26:59;;;;;;;93.63;52.80;;;;;;;7.09;54.18;100022.22;5069194;28;20478;-22
2021/12/25 09:29:25;;;;;;;92.80;54.67;;;;;;;7.04;55.30;100014.84;5068349;28;20087;-22
2021/12/25 09:31:50;;;;;;;103.95;62.80;;;;;;;7.22;53.95;100001.03;5069096;28;20491;-22
2021/12/25 09:34:16;;;;;;;120.25;64.32;;;;;;;6.68;54.30;99966.53;5069294;28;20051;-22
2021/12/25 09:36:41;;;;;;;121.25;69.88;;;;;;;7.21;54.23;100002.06;5069085;28;20029;-22
2021/12/25 09:39:07;;;;;;;104.57;61.25;;;;;;;7.03;53.89;100007.09;5051022;28;20028;-21
2021/12/25 09:41:33;;;;;;;124.60;70.70;;;;;;;7.09;54.21;99974.50;5034311;28;20029;-21
2021/12/25 09:44:03;;;;;;;164.80;94.07;;;;;;;7.02;56.90;99965.69;5068761;28;20053;-22
2021/12/25 09:46:28;;;;;;;147.73;90.78;;;;;;;7.27;56.13;99981.06;5068736;28;20388;-22
2021/12/25 09:48:54;;;;;;;169.98;103.70;;;;;;;7.74;54.49;99987.28;5068903;28;20028;-21
2021/12/25 09:51:20;;;;;;;199.32;123.75;;;;;;;7.71;54.73;99977.09;5068714;28;20810;-21
2021/12/25 09:54:06;;;;;;;195.80;124.68;;;;;;;8.12;53.49;99958.31;5068575;28;20043;-21
2021/12/25 09:56:32;;;;;;;121.53;75.82;;;;;;;8.34;52.96;99977.50;5069260;28;20029;-22
2021/12/25 09:58:57;;;;;;;119.47;73.78;;;;;;;7.89;52.31;99937.50;5068943;28;20043;-21
2021/12/25 10:01:42;;;;;;;115.43;74.30;;;;;;;8.54;50.70;99979.34;5068558;28;20025;-22
2021/12/25 10:04:09;;;;;;;57.72;37.47;;;;;;;8.05;51.14;99984.06;5068629;28;20029;-21
2021/12/25 10:06:38;;;;;;;70.97;47.75;;;;;;;8.41;51.49;99988.16;5051164;28;20048;-22
2021/12/25 10:09:26;;;;;;;76.03;49.13;;;;;;;8.87;50.52;99965.13;5068626;28;20063;-22
2021/12/25 10:12:02;;;;;;;72.20;43.63;;;;;;;8.90;51.29;99970.06;5051077;28;20032;-22
2021/12/25 10:14:28;;;;;;;65.25;40.88;;;;;;;8.39;51.24;99947.66;5050288;28;20492;-21
2021/12/25 10:16:53;;;;;;;70.63;44.75;;;;;;;8.85;51.80;99944.91;5068445;28;20043;-22
2021/12/25 10:19:21;;;;;;;60.35;38.63;;;;;;;8.74;50.07;99945.53;5067872;28;20024;-22
2021/12/25 10:21:46;;;;;;;59.60;37.67;;;;;;;9.13;49.21;99942.94;5067978;28;20047;-21
2021/12/25 10:24:24;;;;;;;59.92;38.70;;;;;;;9.65;48.50;99935.69;5068215;28;20039;-22
2021/12/25 10:26:49;;;;;;;64.95;42.83;;;;;;;9.97;47.60;99949.78;5067889;28;20060;-21
2021/12/25 10:29:29;;;;;;;63.15;41.60;;;;;;;10.16;47.22;99925.84;5050027;28;20114;-21
2021/12/25 10:31:58;;;;;;;66.45;38.85;;;;;;;10.68;46.85;99939.66;5068206;28;20041;-21
2021/12/25 10:34:25;;;;;;;59.92;38.40;;;;;;;10.82;45.93;99940.34;5067999;28;20115;-21
2021/12/25 10:36:51;;;;;;;54.28;35.22;;;;;;;10.57;46.19;99943.91;5067934;28;20567;-21
2021/12/25 10:39:24;;;;;;;56.75;38.75;;;;;;;10.97;44.62;99948.78;5067779;28;20024;-22
2021/12/25 10:41:56;;;;;;;91.13;65.57;;;;;;;11.59;43.36;99937.06;5067810;28;20028;-21
2021/12/25 10:44:33;;;;;;;67.70;43.88;;;;;;;12.09;43.13;99931.34;5067937;28;20032;-22
2021/12/25 10:47:14;;;;;;;58.90;40.50;;;;;;;12.06;44.33;99940.66;5067967;28;20036;-21
2021/12/25 10:49:48;;;;;;;60.00;37.75;;;;;;;12.48;41.07;99930.88;5067670;28;20021;-22
2021/12/25 10:52:25;;;;;;;66.40;45.35;;;;;;;12.95;41.13;99944.94;5067779;28;20421;-21
2021/12/25 10:54:56;;;;;;;60.60;42.67;;;;;;;13.05;41.07;99922.94;5050287;28;20031;-21
2021/12/25 10:57:35;;;;;;;58.67;38.20;;;;;;;12.65;40.84;99937.94;5050078;28;20508;-25
2021/12/25 11:00:03;;;;;;;56.55;37.83;;;;;;;13.09;39.78;99942.81;5067782;28;20082;-21
2021/12/25 11:03:08;;;;;;;54.70;35.33;;;;;;;13.46;38.86;99926.38;5067595;28;20031;-22
2021/12/25 11:05:34;;;;;;;56.03;39.17;;;;;;;13.52;39.49;99925.41;5067493;28;20131;-22
2021/12/25 11:08:06;;;;;;;56.83;39.70;;;;;;;13.70;39.23;99931.63;5067725;28;20021;-22
2021/12/25 11:10:31;;;;;;;57.28;37.53;;;;;;;13.91;39.54;99922.84;5067777;28;20028;-21
2021/12/25 11:12:58;;;;;;;104.00;59.05;;;;;;;13.89;39.15;99903.50;5067547;28;20047;-22
2021/12/25 11:15:26;;;;;;;68.07;43.78;;;;;;;14.26;38.21;99906.50;5069051;28;20518;-22
2021/12/25 11:18:05;;;;;;;66.78;44.20;;;;;;;14.30;38.35;99920.19;5071865;28;20122;-21
2021/12/25 11:20:33;;;;;;;62.20;41.97;;;;;;;14.56;37.89;99874.97;5079090;28;20504;-21
2021/12/25 11:22:59;;;;;;;71.30;49.92;;;;;;;14.79;38.45;99876.56;5067544;28;20258;-21
2021/12/25 11:25:26;;;;;;;60.78;40.50;;;;;;;15.47;36.47;99906.56;5076453;28;20458;-21
2021/12/25 11:27:52;;;;;;;54.70;37.22;;;;;;;15.50;35.90;99905.22;5069271;28;20028;-21
2021/12/25 11:30:20;;;;;;;56.90;39.10;;;;;;;16.00;35.48;99894.09;5087095;28;20141;-22
2021/12/25 11:32:45;;;;;;;57.70;39.10;;;;;;;15.74;36.76;99895.78;5083790;28;20025;-22
2021/12/25 11:35:13;;;;;;;62.13;47.60;;;;;;;20.29;43.50;99892.78;5067314;28;20133;-21
2021/12/25 11:37:38;;;;;;;46.73;35.13;;;;;;;22.67;33.75;99895.06;5067474;28;20039;-22
2021/12/25 11:40:06;;;;;;;51.95;35.92;;;;;;;22.74;32.04;99906.34;5071465;28;20028;-23
2021/12/25 11:42:32;;;;;;;;;;;;;;;22.80;34.35;99899.72;5054271;28;20034;-21
2021/12/25 11:44:57;;;;;;;48.55;40.03;;;;;;;24.54;31.34;99897.38;5053553;28;19912;-21
2021/12/25 11:47:31;;;;;;;35.03;26.55;;;;;;;23.52;28.63;99895.38;5036788;28;20849;-21
2021/12/25 11:49:58;;;;;;;35.60;27.30;;;;;;;23.64;27.47;99890.19;5071109;28;20476;-21
2021/12/25 11:52:28;;;;;;;35.00;26.57;;;;;;;24.44;28.11;99890.25;5071462;28;20075;-23
2021/12/25 11:57:48;;;;;;;35.70;27.58;;;;;;;25.16;26.88;99885.44;5058308;28;20041;-22
2021/12/25 12:00:14;;;;;;;29.35;21.90;;;;;;;23.50;28.08;99873.13;5081146;28;20032;-21
2021/12/25 12:02:43;;;;;;;28.52;21.90;;;;;;;21.97;28.65;99888.00;5078601;28;20535;-22
2021/12/25 12:05:41;;;;;;;26.17;20.58;;;;;;;21.01;31.90;99873.75;5079859;28;20103;-22
2021/12/25 12:08:08;;;;;;;29.08;22.75;;;;;;;20.35;33.24;99867.25;5026694;28;20412;-22
2021/12/25 12:10:46;;;;;;;27.67;21.27;;;;;;;20.73;31.93;99861.94;5078301;28;20067;-21
2021/12/25 12:13:31;;;;;;;28.13;20.50;;;;;;;20.81;27.88;99855.84;5075500;28;20036;-21
2021/12/25 12:15:59;;;;;;;27.60;19.23;;;;;;;19.76;29.26;99854.91;5070844;28;20563;-22
2021/12/25 12:18:29;;;;;;;;;;;;;;;18.73;30.44;99852.84;5070837;28;20028;-21
2021/12/25 12:21:10;;;;;;;24.15;16.90;;;;;;;17.98;32.11;99839.34;5070358;28;19939;-22
2021/12/25 12:23:46;;;;;;;23.45;17.20;;;;;;;17.93;32.35;99837.47;5054650;28;20078;-22
2021/12/25 12:26:13;;;;;;;26.50;18.40;;;;;;;18.24;31.46;99819.31;5070489;28;20032;-22
2021/12/25 12:28:52;;;;;;;26.03;17.97;;;;;;;17.54;32.80;99829.97;5070108;28;20036;-21
2021/12/25 12:31:36;;;;;;;24.40;17.42;;;;;;;17.74;31.78;99834.53;5070364;28;20416;-21
2021/12/25 12:34:16;;;;;;;23.05;14.82;;;;;;;17.22;32.50;99822.97;5072997;28;20031;-21
2021/12/25 12:36:42;;;;;;;21.25;15.48;;;;;;;17.67;34.95;99815.09;5058945;28;20135;-21
2021/12/25 12:39:15;;;;;;;24.92;17.65;;;;;;;19.91;32.77;99819.56;5072567;28;20036;-22
2021/12/25 12:41:50;;;;;;;24.95;16.17;;;;;;;21.00;31.24;99827.94;5069059;28;20028;-21
2021/12/25 12:44:16;;;;;;;23.30;16.13;;;;;;;21.24;30.68;99798.03;5072420;28;20106;-22